• Join FlightAware (Why Join?)
  • Login
  • US Flag 
04:43PM EST


 

Airport Tracker/Info


-or-


 

Live Flight TrackerFlight Track Log ✈ EJA122 ✈ 17-Nov-2013 ✈ KMDW - KRSW

Flight Track Log - Related Links

Times and Time Zones

All times are in EST time to prevent confusion due to time zone crossing. See the EJA122 flight status page for this flight to view local times or setup timezone preferences in your user account.

Time Position Orientation Groundspeed Altitude Reporting Facility
EST Latitude Longitude Course Direction KTS MPH feet Rate Location/Type
12:27PM 41.7833 -87.8000 94° East 191 220 2,400  Level Chicago TRACON
12:28PM 41.8500 -87.7667 20° North 289 333 2,900 600 Climbing Chicago TRACON
12:30PM 41.8333 -87.6667 103° East 232 267 3,700 900 Climbing Chicago TRACON
12:31PM 41.8333 -87.5667 90° East 298 343 4,900 660 Climbing Chicago TRACON
12:31PM 41.8167 -87.4667 103° East 298 343 5,000 300 Climbing Chicago TRACON
12:33PM 41.1979 -87.4714 94° East  Level Estimated
12:33PM 41.8061 -87.3242 96° East 299 344 5,700  Level Chicago Center
12:34PM 41.7911 -87.2136 100° East 300 345 8,700 2,580 Climbing Chicago Center
12:35PM 41.7686 -87.1056 106° East 302 348 11,000 2,220 Climbing Chicago Center
12:36PM 41.7633 -86.9822 93° East 338 389 13,300 2,040 Climbing Chicago Center
12:37PM 41.7675 -86.8525 87° East 352 405 15,300 2,520 Climbing Chicago Center
12:38PM 41.8158 -86.7008 67° East 369 425 18,500 2,460 Climbing Chicago Center
12:39PM 41.8100 -86.5794 94° East 341 392 20,400 1,800 Climbing Chicago Center
12:40PM 41.8028 -86.4528 94° East 342 394 22,300 1,740 Climbing Chicago Center
12:41PM 41.7961 -86.3233 94° East 346 398 24,000 1,500 Climbing Chicago Center
12:42PM 41.7881 -86.1892 95° East 358 412 25,400 1,320 Climbing Chicago Center
12:43PM 41.7797 -86.0483 94° East 374 430 26,800 1,380 Climbing Chicago Center
12:44PM 41.7706 -85.9025 95° East 386 444 28,300 1,560 Climbing Chicago Center
12:45PM 41.7161 -85.7636 118° Southeast 358 412 30,000 1,500 Climbing Chicago Center
12:46PM 41.6503 -85.6828 137° Southeast 330 380 31,400 1,260 Climbing Chicago Center
12:47PM 41.5842 -85.6022 138° Southeast 326 375 32,600 900 Climbing Chicago Center
12:48PM 41.5158 -85.5175 137° Southeast 341 392 33,300 660 Climbing Chicago Center
12:49PM 41.4458 -85.4294 137° Southeast 351 404 34,000 600 Climbing Chicago Center
12:50PM 41.3706 -85.3378 138° Southeast 364 419 34,600 540 Climbing Chicago Center
12:51PM 41.2783 -85.2242 137° Southeast 376 433 35,200 540 Climbing Chicago Center
12:52PM 41.1978 -85.1272 138° Southeast 388 447 35,800 480 Climbing Chicago Center
12:53PM 41.1169 -85.0289 137° Southeast 393 452 36,300 480 Climbing Chicago Center
12:54PM 41.0342 -84.9286 138° Southeast 400 460 36,900 480 Climbing Chicago Center
12:55PM 40.9519 -84.8281 137° Southeast 404 465 37,400 540 Climbing Chicago Center
12:56PM 40.8692 -84.7297 138° Southeast 402 463 38,000 480 Climbing Chicago Center
12:57PM 40.7856 -84.6303 138° Southeast 404 465 38,400 480 Climbing Chicago Center
12:58PM 40.7033 -84.5322 138° Southeast 400 460 39,000 300 Climbing Chicago Center
12:59PM 40.6283 -84.4456 139° Southeast 401 461 39,000  Level Indianapolis Center
01:00PM 40.5428 -84.3431 138° Southeast 413 475 39,000  Level Indianapolis Center
01:01PM 40.4536 -84.2386 138° Southeast 426 490 39,000 120 Level Indianapolis Center
01:02PM 40.3628 -84.1325 138° Southeast 435 501 39,300 240 Climbing Indianapolis Center
01:03PM 40.2625 -84.0667 153° Southeast 403 464 39,600 240 Climbing Indianapolis Center
01:04PM 40.1600 -84.0642 179° South 371 427 39,900 240 Climbing Indianapolis Center
01:05PM 40.0614 -84.0814 188° South 360 414 40,200 240 Climbing Indianapolis Center
01:06PM 39.9439 -84.1014 187° South 358 412 40,500 240 Climbing Indianapolis Center
01:07PM 39.8453 -84.1178 187° South 359 413 40,800 240 Climbing Indianapolis Center
01:08PM 39.7472 -84.1342 187° South 358 412 41,000 60 Climbing Indianapolis Center
01:09PM 39.6469 -84.1500 187° South 363 418 41,000  Level Indianapolis Center
01:10PM 39.5447 -84.1633 186° South 369 425 41,000  Level Indianapolis Center
01:12PM 39.4372 -84.1472 173° South 390 449 41,000  Level Indianapolis Center
01:13PM 39.3092 -84.1294 174° South 387 445 41,000  Level Indianapolis Center
01:14PM 39.2003 -84.1133 173° South 392 451 41,000  Level Indianapolis Center
01:15PM 39.0925 -84.0983 174° South 392 451 41,000  Level Indianapolis Center
01:16PM 38.9856 -84.0833 174° South 389 448 41,000  Level Indianapolis Center
01:17PM 38.8792 -84.0672 173° South 386 444 41,000  Level Indianapolis Center
01:18PM 38.7714 -84.0514 173° South 389 448 41,000  Level Indianapolis Center
01:19PM 38.6428 -84.0328 174° South 389 448 41,000  Level Indianapolis Center
01:20PM 38.5489 -84.0203 174° South 381 438 41,000  Level Indianapolis Center
01:21PM 38.4269 -84.0003 173° South 379 436 41,000  Level Indianapolis Center
01:22PM 38.3219 -83.9872 174° South 378 435 41,000  Level Indianapolis Center
01:23PM 38.2164 -83.9725 174° South 380 437 41,000  Level Indianapolis Center
01:24PM 38.1133 -83.9578 174° South 376 433 41,000  Level Indianapolis Center
01:25PM 38.0097 -83.9447 174° South 372 428 41,000  Level Indianapolis Center
01:26PM 37.9081 -83.9306 174° South 369 425 41,000  Level Indianapolis Center
01:27PM 37.8072 -83.9156 173° South 364 419 41,000  Level Indianapolis Center
01:28PM 37.6911 -83.8992 174° South 361 415 41,000  Level Indianapolis Center
01:29PM 37.5908 -83.8858 174° South 362 417 41,000  Level Indianapolis Center
01:30PM 37.4925 -83.8717 173° South 358 412 41,000  Level Indianapolis Center
01:31PM 37.3925 -83.8578 174° South 358 412 41,000  Level Indianapolis Center
01:32PM 37.2919 -83.8439 174° South 362 417 41,000  Level Indianapolis Center
01:33PM 37.1919 -83.8303 174° South 361 415 41,000  Level Indianapolis Center
01:34PM 37.0761 -83.8144 174° South 361 415 41,000  Level Indianapolis Center
01:35PM 36.9756 -83.8006 174° South 362 417 41,000  Level Indianapolis Center
01:36PM 36.8747 -83.7864 174° South 363 418 41,000  Level Indianapolis Center
01:37PM 36.7753 -83.7733 174° South 362 417 41,000  Level Indianapolis Center
01:38PM 36.6761 -83.7594 174° South 358 412 41,000  Level Indianapolis Center
01:39PM 36.5778 -83.7461 174° South 356 410 41,000  Level Indianapolis Center
01:40PM 36.4808 -83.7325 174° South 356 410 41,000  Level Indianapolis Center
01:41PM 36.3603 -83.7153 173° South 359 413 41,000  Level Indianapolis Center
01:42PM 36.2608 -83.7028 174° South 359 413 41,000  Level Indianapolis Center
01:43PM 36.1614 -83.6892 174° South 358 412 41,000  Level Indianapolis Center
01:44PM 36.0608 -83.6750 174° South 360 414 41,000  Level Indianapolis Center
01:45PM 35.9636 -83.6636 175° South 362 417 41,000  Level Indianapolis Center
01:46PM 35.8633 -83.6492 173° South 362 417 41,000  Level Indianapolis Center
01:47PM 35.7450 -83.6344 174° South 365 420 41,000  Level Indianapolis Center
01:48PM 35.6436 -83.6203 174° South 366 421 41,000  Level Indianapolis Center
01:49PM 35.5486 -83.6100 175° South 367 422 41,000  Level Atlanta Center
01:50PM 35.4461 -83.5953 173° South 367 422 41,000  Level Atlanta Center
01:51PM 35.3439 -83.5831 174° South 367 422 41,000  Level Atlanta Center
01:52PM 35.2417 -83.5708 174° South 367 422 41,000  Level Atlanta Center
01:53PM 35.1372 -83.5561 173° South 372 428 41,000  Level Atlanta Center
01:54PM 35.0328 -83.5417 174° South 372 428 41,000  Level Atlanta Center
01:55PM 34.9264 -83.5319 176° South 378 435 41,000  Level Atlanta Center
01:56PM 34.8178 -83.5150 173° South 390 449 41,000  Level Atlanta Center
01:57PM 34.7114 -83.5006 174° South 396 456 41,000  Level Atlanta Center
01:58PM 34.5986 -83.4811 172° South 402 463 41,000  Level Atlanta Center
01:59PM 34.4881 -83.4667 174° South 408 470 41,000  Level Atlanta Center
02:00PM 34.3753 -83.4550 175° South 408 470 41,000  Level Atlanta Center
02:01PM 34.2625 -83.4406 174° South 408 470 41,000  Level Atlanta Center
02:02PM 34.1392 -83.4239 174° South 402 463 41,000  Level Atlanta Center
02:03PM 34.0264 -83.4097 174° South 409 471 41,000  Level Atlanta Center
02:04PM 33.9158 -83.3981 175° South 409 471 41,000  Level Atlanta Center
02:05PM 33.8028 -83.3814 173° South 409 471 41,000  Level Atlanta Center
02:06PM 33.6881 -83.3697 175° South 409 471 41,000  Level Atlanta Center
02:07PM 33.5753 -83.3556 174° South 409 471 41,000  Level Atlanta Center
02:08PM 33.4625 -83.3442 175° South 404 465 41,000 -300 Level Atlanta Center
02:09PM 33.3581 -83.3325 175° South 410 472 40,500 -900 Descending Atlanta Center
02:10PM 33.2389 -83.3161 173° South 421 484 39,300 -1,200 Descending Atlanta Center
02:11PM 33.1261 -83.3047 175° South 429 494 38,100 -1,320 Descending Atlanta Center
02:12PM 33.0031 -83.2858 173° South 415 478 36,700 -1,080 Descending Atlanta Center
02:13PM 32.9006 -83.2744 175° South 410 472 36,000 -360 Descending Atlanta Center
02:14PM 32.7836 -83.2606 174° South 410 472 36,000  Level Atlanta Center
02:15PM 32.6644 -83.2419 173° South 415 478 36,000  Level Atlanta Center
02:16PM 32.5475 -83.2281 174° South 426 490 36,000 -360 Level Atlanta Center
02:17PM 32.4264 -83.2144 175° South 426 490 35,300 -540 Descending Atlanta Center
02:18PM 32.3094 -83.1983 173° South 426 490 35,000 -180 Descending Atlanta Center
02:19PM 32.1883 -83.1847 175° South 426 490 35,000  Level Atlanta Center
02:20PM 32.0703 -83.1672 173° South 428 493 35,000  Level Jacksonville Center
02:21PM 31.9511 -83.1522 174° South 428 493 35,000  Level Jacksonville Center
02:22PM 31.8322 -83.1128 164° South 428 493 35,000  Level Jacksonville Center
02:23PM 31.7197 -83.0464 153° Southeast 434 499 35,000 -240 Level Jacksonville Center
02:24PM 31.6069 -82.9781 153° Southeast 450 518 34,600 -540 Descending Jacksonville Center
02:25PM 31.4881 -82.9072 153° Southeast 462 532 34,000 -300 Descending Jacksonville Center
02:26PM 31.3711 -82.8367 153° Southeast 468 539 34,000  Level Jacksonville Center
02:27PM 31.2625 -82.7661 151° Southeast 468 539 34,000  Level Jacksonville Center
02:28PM 31.1433 -82.7008 155° Southeast 463 533 34,000  Level Jacksonville Center
02:29PM 31.0389 -82.6406 154° Southeast 463 533 34,000  Level Jacksonville Center
02:30PM 30.9258 -82.5728 153° Southeast 463 533 34,000  Level Jacksonville Center
02:31PM 30.8131 -82.5056 153° Southeast 463 533 34,000  Level Jacksonville Center
02:32PM 30.6978 -82.4358 153° Southeast 463 533 34,000  Level Jacksonville Center
02:33PM 30.5850 -82.3689 153° Southeast 463 533 34,000  Level Jacksonville Center
02:34PM 30.4592 -82.2925 152° Southeast 468 539 34,000  Level Jacksonville Center
02:35PM 30.3503 -82.2258 152° Southeast 448 516 34,000 -540 Level Jacksonville Center
02:36PM 30.2353 -82.1617 154° Southeast 447 514 33,000 -540 Descending Jacksonville Center
02:37PM 30.1200 -82.1194 162° South 440 506 33,000  Level Jacksonville Center
02:38PM 30.0114 -82.1011 172° South 434 499 33,000  Level Jacksonville Center
02:39PM 29.8944 -82.0756 169° South 434 499 33,000  Level Jacksonville Center
02:40PM 29.7753 -82.0550 171° South 434 499 33,000  Level Jacksonville Center
02:41PM 29.6581 -82.0297 169° South 429 494 33,000  Level Jacksonville Center
02:42PM 29.5389 -82.0069 171° South 429 494 33,000  Level Jacksonville Center
02:43PM 29.4239 -81.9842 170° South 429 494 33,000  Level Jacksonville Center
02:44PM 29.3028 -81.9592 170° South 429 494 33,000 -600 Level Jacksonville Center
02:45PM 29.1836 -81.9317 169° South 429 494 31,900 -1,440 Descending Jacksonville Center
02:47PM 28.9633 -81.8897 171° South 442 509 29,100 -1,620 Descending Miami Center
02:48PM 28.8453 -81.8678 171° South 448 516 27,500 -1,080 Descending Miami Center
02:49PM 28.7272 -81.8458 171° South 442 509 27,000 -300 Descending Miami Center
02:50PM 28.6092 -81.8217 170° South 437 503 27,000  Level Miami Center
02:51PM 28.4892 -81.7928 168° South 437 503 27,000 -60 Level Miami Center
02:52PM 28.3672 -81.7567 165° South 442 509 26,900 -660 Descending Miami Center
02:53PM 28.2475 -81.7231 166° South 449 517 25,700 -1,380 Descending Miami Center
02:54PM 28.1317 -81.6900 166° South 443 510 24,200 -900 Descending Miami Center
02:55PM 28.0194 -81.6781 175° South 425 489 24,000 -600 Descending Miami Center
02:56PM 27.9131 -81.6783 180° South 398 458 23,100 -540 Descending Miami Center
02:57PM 27.7908 -81.6494 168° South 404 465 23,000 -60 Descending Miami Center
02:58PM 27.6853 -81.6286 170° South 404 465 23,000 -240 Level Miami Center
02:59PM 27.5858 -81.6058 169° South 409 471 22,600 -1,140 Descending Miami Center
03:00PM 27.4697 -81.5822 170° South 399 459 20,800 -2,100 Descending Miami Center
03:01PM 27.3661 -81.5569 168° South 388 447 18,400 -2,340 Descending Miami Center
03:02PM 27.2686 -81.5392 171° South 376 433 16,200 -2,220 Descending Miami Center
03:03PM 27.1753 -81.5214 170° South 366 421 14,000 -2,100 Descending Miami Center
03:04PM 27.0881 -81.5014 168° South 339 390 12,000 -1,920 Descending Miami Center
03:05PM 27.0158 -81.4822 167° South 317 365 10,200 -1,020 Descending Miami Center
03:06PM 26.9314 -81.4417 157° South 296 341 10,000 -600 Descending Miami Center
03:07PM 26.8594 -81.4086 158° South 289 333 9,100 -1,080 Descending Miami Center
03:08PM 26.7864 -81.4033 176° South 283 326 7,900 -1,500 Descending Miami Center
03:09PM 26.7367 -81.4619 226° Southwest 252 290 6,100 -2,040 Descending Miami Center
03:10PM 26.6889 -81.5228 229° Southwest 257 296 3,900 -1,560 Descending Miami Center
03:11PM 26.6514 -81.5817 235° Southwest 250 288 3,000 -840 Descending Miami Center
03:12PM 26.6139 -81.6383 233° Southwest 231 266 2,300 -720 Descending Miami Center
03:14PM 26.5333 -81.7500 318° Northwest  Level FlightAware Approximate
03:21PM 26.5362 -81.7552 318° Northwest  Level Estimated
03:22PM 26.5333 -81.7500 318° Northwest  Level FlightAware Approximate
03:23PM 26.5362 -81.7552 318° Northwest  Level Estimated
03:24PM 26.5333 -81.7500 318° Northwest  Level FlightAware Approximate